sensor_id;sensor_type;location;lat;lon;timestamp;P1;durP1;ratioP1;P2;durP2;ratioP2
7432;SDS011;32233;49.500;7.764;2023-03-16T00:02:20;8.63;;;6.03;;
7432;SDS011;32233;49.500;7.764;2023-03-16T00:04:47;7.60;;;4.77;;
7432;SDS011;32233;49.500;7.764;2023-03-16T00:07:13;6.40;;;5.00;;
7432;SDS011;32233;49.500;7.764;2023-03-16T00:09:40;7.20;;;4.83;;
7432;SDS011;32233;49.500;7.764;2023-03-16T00:12:14;8.07;;;5.80;;
7432;SDS011;32233;49.500;7.764;2023-03-16T00:14:46;7.77;;;5.27;;
7432;SDS011;32233;49.500;7.764;2023-03-16T00:17:14;7.20;;;5.93;;
7432;SDS011;32233;49.500;7.764;2023-03-16T00:19:49;10.30;;;5.93;;
7432;SDS011;32233;49.500;7.764;2023-03-16T00:22:21;9.97;;;5.57;;
7432;SDS011;32233;49.500;7.764;2023-03-16T00:24:56;7.97;;;5.40;;
7432;SDS011;32233;49.500;7.764;2023-03-16T00:27:24;7.57;;;5.40;;
7432;SDS011;32233;49.500;7.764;2023-03-16T00:29:51;6.47;;;4.90;;
7432;SDS011;32233;49.500;7.764;2023-03-16T00:32:23;7.37;;;5.23;;
7432;SDS011;32233;49.500;7.764;2023-03-16T00:34:52;7.10;;;5.17;;
7432;SDS011;32233;49.500;7.764;2023-03-16T00:37:19;8.43;;;5.77;;
7432;SDS011;32233;49.500;7.764;2023-03-16T00:39:49;8.63;;;5.50;;
7432;SDS011;32233;49.500;7.764;2023-03-16T00:42:17;8.67;;;5.67;;
7432;SDS011;32233;49.500;7.764;2023-03-16T00:44:45;9.77;;;5.63;;
7432;SDS011;32233;49.500;7.764;2023-03-16T00:47:12;9.00;;;5.43;;
7432;SDS011;32233;49.500;7.764;2023-03-16T00:49:40;10.23;;;5.60;;
7432;SDS011;32233;49.500;7.764;2023-03-16T00:52:09;8.83;;;5.90;;
7432;SDS011;32233;49.500;7.764;2023-03-16T00:54:44;9.10;;;5.73;;
7432;SDS011;32233;49.500;7.764;2023-03-16T00:57:12;10.10;;;5.73;;
7432;SDS011;32233;49.500;7.764;2023-03-16T00:59:41;8.83;;;5.13;;
7432;SDS011;32233;49.500;7.764;2023-03-16T01:02:09;8.07;;;5.20;;
7432;SDS011;32233;49.500;7.764;2023-03-16T01:04:36;7.10;;;4.77;;
7432;SDS011;32233;49.500;7.764;2023-03-16T01:07:03;7.07;;;4.70;;
7432;SDS011;32233;49.500;7.764;2023-03-16T01:09:30;6.70;;;5.20;;
7432;SDS011;32233;49.500;7.764;2023-03-16T01:12:06;7.50;;;5.27;;
7432;SDS011;32233;49.500;7.764;2023-03-16T01:14:36;8.30;;;6.00;;
7432;SDS011;32233;49.500;7.764;2023-03-16T01:17:04;7.53;;;5.03;;
7432;SDS011;32233;49.500;7.764;2023-03-16T01:19:34;6.40;;;5.13;;
7432;SDS011;32233;49.500;7.764;2023-03-16T01:22:03;6.30;;;5.20;;
7432;SDS011;32233;49.500;7.764;2023-03-16T01:24:31;8.37;;;4.50;;
7432;SDS011;32233;49.500;7.764;2023-03-16T01:26:59;7.10;;;5.07;;
7432;SDS011;32233;49.500;7.764;2023-03-16T01:29:26;11.27;;;5.50;;
7432;SDS011;32233;49.500;7.764;2023-03-16T01:31:55;8.83;;;5.53;;
7432;SDS011;32233;49.500;7.764;2023-03-16T01:34:22;8.43;;;5.90;;
7432;SDS011;32233;49.500;7.764;2023-03-16T01:36:49;9.03;;;5.60;;
7432;SDS011;32233;49.500;7.764;2023-03-16T01:39:24;11.60;;;5.50;;
7432;SDS011;32233;49.500;7.764;2023-03-16T01:41:51;11.50;;;6.03;;
7432;SDS011;32233;49.500;7.764;2023-03-16T01:44:18;9.27;;;6.43;;
7432;SDS011;32233;49.500;7.764;2023-03-16T01:46:48;8.73;;;6.23;;
7432;SDS011;32233;49.500;7.764;2023-03-16T01:49:16;10.97;;;6.50;;
7432;SDS011;32233;49.500;7.764;2023-03-16T01:51:58;11.60;;;6.27;;
7432;SDS011;32233;49.500;7.764;2023-03-16T01:54:52;10.93;;;6.83;;
7432;SDS011;32233;49.500;7.764;2023-03-16T01:57:26;8.37;;;6.37;;
7432;SDS011;32233;49.500;7.764;2023-03-16T02:03:03;12.57;;;7.03;;
7432;SDS011;32233;49.500;7.764;2023-03-16T02:08:14;11.97;;;6.97;;
7432;SDS011;32233;49.500;7.764;2023-03-16T02:10:42;11.37;;;7.23;;
7432;SDS011;32233;49.500;7.764;2023-03-16T02:13:10;12.13;;;7.37;;
7432;SDS011;32233;49.500;7.764;2023-03-16T02:15:37;10.20;;;6.67;;
7432;SDS011;32233;49.500;7.764;2023-03-16T02:18:04;9.57;;;6.53;;
7432;SDS011;32233;49.500;7.764;2023-03-16T02:20:35;10.77;;;7.27;;
7432;SDS011;32233;49.500;7.764;2023-03-16T02:23:15;15.47;;;8.63;;
7432;SDS011;32233;49.500;7.764;2023-03-16T02:31:49;13.90;;;7.93;;
7432;SDS011;32233;49.500;7.764;2023-03-16T02:34:17;14.80;;;7.60;;
7432;SDS011;32233;49.500;7.764;2023-03-16T02:36:44;12.50;;;7.33;;
7432;SDS011;32233;49.500;7.764;2023-03-16T02:39:16;11.80;;;7.50;;
7432;SDS011;32233;49.500;7.764;2023-03-16T02:41:44;11.17;;;6.60;;
7432;SDS011;32233;49.500;7.764;2023-03-16T02:44:19;15.13;;;8.03;;
7432;SDS011;32233;49.500;7.764;2023-03-16T02:46:55;10.63;;;6.60;;
7432;SDS011;32233;49.500;7.764;2023-03-16T02:49:27;10.03;;;6.80;;
7432;SDS011;32233;49.500;7.764;2023-03-16T02:51:59;12.60;;;6.50;;
7432;SDS011;32233;49.500;7.764;2023-03-16T02:54:25;12.23;;;6.83;;
7432;SDS011;32233;49.500;7.764;2023-03-16T02:56:52;13.90;;;7.27;;
7432;SDS011;32233;49.500;7.764;2023-03-16T02:59:20;12.37;;;7.17;;
7432;SDS011;32233;49.500;7.764;2023-03-16T03:01:46;13.70;;;7.83;;
7432;SDS011;32233;49.500;7.764;2023-03-16T03:04:14;10.90;;;7.13;;
7432;SDS011;32233;49.500;7.764;2023-03-16T03:06:41;11.20;;;7.60;;
7432;SDS011;32233;49.500;7.764;2023-03-16T03:09:08;10.80;;;7.23;;
7432;SDS011;32233;49.500;7.764;2023-03-16T03:11:39;12.70;;;7.47;;
7432;SDS011;32233;49.500;7.764;2023-03-16T03:14:06;12.53;;;7.53;;
7432;SDS011;32233;49.500;7.764;2023-03-16T03:16:35;12.43;;;7.50;;
7432;SDS011;32233;49.500;7.764;2023-03-16T03:19:01;12.43;;;7.67;;
7432;SDS011;32233;49.500;7.764;2023-03-16T03:21:33;13.80;;;7.90;;
7432;SDS011;32233;49.500;7.764;2023-03-16T03:23:59;12.60;;;7.77;;
7432;SDS011;32233;49.500;7.764;2023-03-16T03:26:26;14.33;;;7.63;;
7432;SDS011;32233;49.500;7.764;2023-03-16T03:28:56;12.13;;;7.27;;
7432;SDS011;32233;49.500;7.764;2023-03-16T03:31:22;13.67;;;8.23;;
7432;SDS011;32233;49.500;7.764;2023-03-16T03:33:50;11.93;;;7.90;;
7432;SDS011;32233;49.500;7.764;2023-03-16T03:36:16;12.83;;;7.67;;
7432;SDS011;32233;49.500;7.764;2023-03-16T03:38:44;10.97;;;7.37;;
7432;SDS011;32233;49.500;7.764;2023-03-16T03:41:11;14.73;;;7.87;;
7432;SDS011;32233;49.500;7.764;2023-03-16T03:43:38;15.63;;;8.53;;
7432;SDS011;32233;49.500;7.764;2023-03-16T03:46:09;13.30;;;8.17;;
7432;SDS011;32233;49.500;7.764;2023-03-16T03:48:36;13.93;;;8.13;;
7432;SDS011;32233;49.500;7.764;2023-03-16T03:51:03;15.90;;;8.17;;
7432;SDS011;32233;49.500;7.764;2023-03-16T03:53:45;13.77;;;8.30;;
7432;SDS011;32233;49.500;7.764;2023-03-16T03:56:19;13.63;;;8.00;;
7432;SDS011;32233;49.500;7.764;2023-03-16T03:58:46;13.83;;;8.20;;
7432;SDS011;32233;49.500;7.764;2023-03-16T04:01:20;13.33;;;7.87;;
7432;SDS011;32233;49.500;7.764;2023-03-16T04:03:46;13.30;;;8.73;;
7432;SDS011;32233;49.500;7.764;2023-03-16T04:06:14;15.10;;;8.73;;
7432;SDS011;32233;49.500;7.764;2023-03-16T04:08:41;14.23;;;8.00;;
7432;SDS011;32233;49.500;7.764;2023-03-16T04:11:11;13.83;;;8.23;;
7432;SDS011;32233;49.500;7.764;2023-03-16T04:13:38;18.73;;;8.97;;
7432;SDS011;32233;49.500;7.764;2023-03-16T04:16:04;16.97;;;9.17;;
7432;SDS011;32233;49.500;7.764;2023-03-16T04:18:38;15.37;;;8.30;;
7432;SDS011;32233;49.500;7.764;2023-03-16T04:21:07;13.13;;;9.53;;
7432;SDS011;32233;49.500;7.764;2023-03-16T04:23:39;14.67;;;9.57;;
7432;SDS011;32233;49.500;7.764;2023-03-16T04:26:07;16.07;;;9.63;;
7432;SDS011;32233;49.500;7.764;2023-03-16T04:28:35;14.23;;;9.53;;
7432;SDS011;32233;49.500;7.764;2023-03-16T04:31:05;15.73;;;8.83;;
7432;SDS011;32233;49.500;7.764;2023-03-16T04:33:38;12.97;;;8.20;;
7432;SDS011;32233;49.500;7.764;2023-03-16T04:36:05;13.10;;;8.93;;
7432;SDS011;32233;49.500;7.764;2023-03-16T04:38:35;16.23;;;7.87;;
7432;SDS011;32233;49.500;7.764;2023-03-16T04:41:02;13.27;;;8.10;;
7432;SDS011;32233;49.500;7.764;2023-03-16T04:43:35;12.60;;;7.77;;
7432;SDS011;32233;49.500;7.764;2023-03-16T04:46:15;11.17;;;7.57;;
7432;SDS011;32233;49.500;7.764;2023-03-16T04:48:41;11.57;;;7.73;;
7432;SDS011;32233;49.500;7.764;2023-03-16T04:51:08;15.17;;;7.63;;
7432;SDS011;32233;49.500;7.764;2023-03-16T04:53:39;11.13;;;7.47;;
7432;SDS011;32233;49.500;7.764;2023-03-16T04:56:13;11.70;;;7.90;;
7432;SDS011;32233;49.500;7.764;2023-03-16T04:58:50;13.33;;;8.07;;
7432;SDS011;32233;49.500;7.764;2023-03-16T05:01:18;11.50;;;8.17;;
7432;SDS011;32233;49.500;7.764;2023-03-16T05:03:47;12.63;;;7.87;;
7432;SDS011;32233;49.500;7.764;2023-03-16T05:06:15;11.20;;;8.33;;
7432;SDS011;32233;49.500;7.764;2023-03-16T05:08:42;10.73;;;7.40;;
7432;SDS011;32233;49.500;7.764;2023-03-16T05:11:08;12.90;;;7.73;;
7432;SDS011;32233;49.500;7.764;2023-03-16T05:13:45;12.37;;;8.07;;
7432;SDS011;32233;49.500;7.764;2023-03-16T05:16:11;12.50;;;7.93;;
7432;SDS011;32233;49.500;7.764;2023-03-16T05:18:39;12.97;;;8.23;;
7432;SDS011;32233;49.500;7.764;2023-03-16T05:21:06;11.87;;;7.90;;
7432;SDS011;32233;49.500;7.764;2023-03-16T05:23:47;12.23;;;8.33;;
7432;SDS011;32233;49.500;7.764;2023-03-16T05:26:13;14.43;;;8.87;;
7432;SDS011;32233;49.500;7.764;2023-03-16T05:28:40;13.53;;;8.53;;
7432;SDS011;32233;49.500;7.764;2023-03-16T05:31:10;16.17;;;8.93;;
7432;SDS011;32233;49.500;7.764;2023-03-16T05:33:41;13.03;;;8.57;;
7432;SDS011;32233;49.500;7.764;2023-03-16T05:36:14;11.27;;;7.83;;
7432;SDS011;32233;49.500;7.764;2023-03-16T05:38:43;13.07;;;8.27;;
7432;SDS011;32233;49.500;7.764;2023-03-16T05:41:18;13.57;;;8.73;;
7432;SDS011;32233;49.500;7.764;2023-03-16T05:44:12;13.43;;;8.33;;
7432;SDS011;32233;49.500;7.764;2023-03-16T05:47:02;12.87;;;7.77;;
7432;SDS011;32233;49.500;7.764;2023-03-16T05:49:31;11.97;;;8.13;;
7432;SDS011;32233;49.500;7.764;2023-03-16T05:52:00;11.60;;;8.33;;
7432;SDS011;32233;49.500;7.764;2023-03-16T05:54:29;12.97;;;8.53;;
7432;SDS011;32233;49.500;7.764;2023-03-16T05:56:56;11.50;;;7.97;;
7432;SDS011;32233;49.500;7.764;2023-03-16T05:59:22;14.83;;;8.23;;
7432;SDS011;32233;49.500;7.764;2023-03-16T06:01:53;12.50;;;8.63;;
7432;SDS011;32233;49.500;7.764;2023-03-16T06:04:20;13.70;;;9.10;;
7432;SDS011;32233;49.500;7.764;2023-03-16T06:06:47;11.77;;;7.73;;
7432;SDS011;32233;49.500;7.764;2023-03-16T06:09:23;12.20;;;8.47;;
7432;SDS011;32233;49.500;7.764;2023-03-16T06:11:49;10.67;;;7.57;;
7432;SDS011;32233;49.500;7.764;2023-03-16T06:14:17;12.13;;;8.70;;
7432;SDS011;32233;49.500;7.764;2023-03-16T06:16:46;13.47;;;8.13;;
7432;SDS011;32233;49.500;7.764;2023-03-16T06:19:14;12.33;;;8.23;;
7432;SDS011;32233;49.500;7.764;2023-03-16T06:21:44;10.20;;;7.77;;
7432;SDS011;32233;49.500;7.764;2023-03-16T06:24:27;11.37;;;7.30;;
7432;SDS011;32233;49.500;7.764;2023-03-16T06:26:53;12.07;;;7.80;;
7432;SDS011;32233;49.500;7.764;2023-03-16T06:29:24;11.87;;;7.87;;
7432;SDS011;32233;49.500;7.764;2023-03-16T06:31:50;9.60;;;7.77;;
7432;SDS011;32233;49.500;7.764;2023-03-16T06:34:19;9.80;;;7.67;;
7432;SDS011;32233;49.500;7.764;2023-03-16T06:36:46;11.23;;;7.93;;
7432;SDS011;32233;49.500;7.764;2023-03-16T06:39:13;11.50;;;8.20;;
7432;SDS011;32233;49.500;7.764;2023-03-16T06:41:43;11.83;;;7.90;;
7432;SDS011;32233;49.500;7.764;2023-03-16T06:44:13;16.97;;;9.33;;
7432;SDS011;32233;49.500;7.764;2023-03-16T06:46:49;14.30;;;10.57;;
7432;SDS011;32233;49.500;7.764;2023-03-16T06:49:16;14.93;;;10.87;;
7432;SDS011;32233;49.500;7.764;2023-03-16T06:51:42;16.30;;;12.00;;
7432;SDS011;32233;49.500;7.764;2023-03-16T06:54:09;16.37;;;11.33;;
7432;SDS011;32233;49.500;7.764;2023-03-16T06:56:38;13.57;;;10.87;;
7432;SDS011;32233;49.500;7.764;2023-03-16T06:59:05;12.33;;;9.50;;
7432;SDS011;32233;49.500;7.764;2023-03-16T07:01:32;9.97;;;8.07;;
7432;SDS011;32233;49.500;7.764;2023-03-16T07:03:59;8.80;;;7.27;;
7432;SDS011;32233;49.500;7.764;2023-03-16T07:06:29;9.37;;;6.73;;
7432;SDS011;32233;49.500;7.764;2023-03-16T07:08:56;8.03;;;6.53;;
7432;SDS011;32233;49.500;7.764;2023-03-16T07:11:23;9.33;;;6.63;;
7432;SDS011;32233;49.500;7.764;2023-03-16T07:13:50;9.20;;;5.97;;
7432;SDS011;32233;49.500;7.764;2023-03-16T07:16:18;8.27;;;6.03;;
7432;SDS011;32233;49.500;7.764;2023-03-16T07:18:46;8.07;;;5.87;;
7432;SDS011;32233;49.500;7.764;2023-03-16T07:21:15;6.37;;;5.77;;
7432;SDS011;32233;49.500;7.764;2023-03-16T07:23:42;6.73;;;5.93;;
7432;SDS011;32233;49.500;7.764;2023-03-16T07:26:11;6.73;;;6.03;;
7432;SDS011;32233;49.500;7.764;2023-03-16T07:28:48;8.07;;;5.97;;
7432;SDS011;32233;49.500;7.764;2023-03-16T07:31:15;6.40;;;5.67;;
7432;SDS011;32233;49.500;7.764;2023-03-16T07:33:42;5.70;;;5.10;;
7432;SDS011;32233;49.500;7.764;2023-03-16T07:36:13;5.40;;;4.70;;
7432;SDS011;32233;49.500;7.764;2023-03-16T07:38:45;5.73;;;5.10;;
7432;SDS011;32233;49.500;7.764;2023-03-16T07:41:12;4.87;;;4.30;;
7432;SDS011;32233;49.500;7.764;2023-03-16T07:43:39;5.33;;;4.83;;
7432;SDS011;32233;49.500;7.764;2023-03-16T07:46:08;4.90;;;4.50;;
7432;SDS011;32233;49.500;7.764;2023-03-16T07:48:35;5.53;;;4.67;;
7432;SDS011;32233;49.500;7.764;2023-03-16T07:51:02;5.20;;;4.70;;
7432;SDS011;32233;49.500;7.764;2023-03-16T07:53:29;6.03;;;4.83;;
7432;SDS011;32233;49.500;7.764;2023-03-16T07:56:16;6.00;;;4.97;;
7432;SDS011;32233;49.500;7.764;2023-03-16T07:58:45;5.47;;;4.93;;
7432;SDS011;32233;49.500;7.764;2023-03-16T08:01:12;5.60;;;4.93;;
7432;SDS011;32233;49.500;7.764;2023-03-16T08:03:39;5.90;;;5.07;;
7432;SDS011;32233;49.500;7.764;2023-03-16T08:06:05;6.53;;;5.07;;
7432;SDS011;32233;49.500;7.764;2023-03-16T08:08:33;7.97;;;5.20;;
7432;SDS011;32233;49.500;7.764;2023-03-16T08:11:00;6.20;;;4.63;;
7432;SDS011;32233;49.500;7.764;2023-03-16T08:13:38;5.30;;;4.90;;
7432;SDS011;32233;49.500;7.764;2023-03-16T08:16:09;5.93;;;4.67;;
7432;SDS011;32233;49.500;7.764;2023-03-16T08:18:38;6.43;;;5.33;;
7432;SDS011;32233;49.500;7.764;2023-03-16T08:21:05;6.47;;;5.47;;
7432;SDS011;32233;49.500;7.764;2023-03-16T08:23:31;7.07;;;5.60;;
7432;SDS011;32233;49.500;7.764;2023-03-16T08:25:59;7.83;;;5.83;;
7432;SDS011;32233;49.500;7.764;2023-03-16T08:28:26;7.60;;;5.37;;
7432;SDS011;32233;49.500;7.764;2023-03-16T08:30:54;6.80;;;5.33;;
7432;SDS011;32233;49.500;7.764;2023-03-16T08:33:44;7.30;;;5.47;;
7432;SDS011;32233;49.500;7.764;2023-03-16T08:36:14;5.90;;;5.30;;
7432;SDS011;32233;49.500;7.764;2023-03-16T08:38:46;6.87;;;5.63;;
7432;SDS011;32233;49.500;7.764;2023-03-16T08:41:33;6.20;;;5.30;;
7432;SDS011;32233;49.500;7.764;2023-03-16T08:44:04;4.90;;;4.50;;
7432;SDS011;32233;49.500;7.764;2023-03-16T08:46:33;5.43;;;4.93;;
7432;SDS011;32233;49.500;7.764;2023-03-16T08:49:00;7.23;;;5.20;;
7432;SDS011;32233;49.500;7.764;2023-03-16T08:51:27;7.83;;;4.50;;
7432;SDS011;32233;49.500;7.764;2023-03-16T08:53:54;4.70;;;4.10;;
7432;SDS011;32233;49.500;7.764;2023-03-16T08:56:21;6.37;;;4.33;;
7432;SDS011;32233;49.500;7.764;2023-03-16T08:58:48;4.87;;;3.87;;
7432;SDS011;32233;49.500;7.764;2023-03-16T09:01:16;4.80;;;3.57;;
7432;SDS011;32233;49.500;7.764;2023-03-16T09:03:44;4.20;;;3.90;;
7432;SDS011;32233;49.500;7.764;2023-03-16T09:06:13;4.10;;;3.70;;
7432;SDS011;32233;49.500;7.764;2023-03-16T09:08:41;4.37;;;3.63;;
7432;SDS011;32233;49.500;7.764;2023-03-16T09:11:13;3.97;;;3.57;;
7432;SDS011;32233;49.500;7.764;2023-03-16T09:13:42;4.00;;;3.63;;
7432;SDS011;32233;49.500;7.764;2023-03-16T09:16:10;8.40;;;3.90;;
7432;SDS011;32233;49.500;7.764;2023-03-16T09:18:39;4.63;;;3.77;;
7432;SDS011;32233;49.500;7.764;2023-03-16T09:21:07;5.47;;;3.43;;
7432;SDS011;32233;49.500;7.764;2023-03-16T09:23:35;4.80;;;3.30;;
7432;SDS011;32233;49.500;7.764;2023-03-16T09:26:03;3.40;;;3.10;;
7432;SDS011;32233;49.500;7.764;2023-03-16T09:28:33;4.57;;;3.37;;
7432;SDS011;32233;49.500;7.764;2023-03-16T09:31:01;4.20;;;3.80;;
7432;SDS011;32233;49.500;7.764;2023-03-16T09:33:29;3.70;;;3.20;;
7432;SDS011;32233;49.500;7.764;2023-03-16T09:35:58;3.53;;;2.87;;
7432;SDS011;32233;49.500;7.764;2023-03-16T09:38:25;3.13;;;2.70;;
7432;SDS011;32233;49.500;7.764;2023-03-16T09:43:41;2.57;;;2.10;;
7432;SDS011;32233;49.500;7.764;2023-03-16T09:48:50;3.17;;;2.53;;
7432;SDS011;32233;49.500;7.764;2023-03-16T09:51:26;2.80;;;2.27;;
7432;SDS011;32233;49.500;7.764;2023-03-16T09:53:58;1.80;;;1.70;;
7432;SDS011;32233;49.500;7.764;2023-03-16T09:56:29;2.20;;;2.00;;
7432;SDS011;32233;49.500;7.764;2023-03-16T09:59:04;1.20;;;1.10;;
7432;SDS011;32233;49.500;7.764;2023-03-16T10:07:08;0.90;;;0.80;;
7432;SDS011;32233;49.500;7.764;2023-03-16T10:09:53;2.10;;;0.63;;
7432;SDS011;32233;49.500;7.764;2023-03-16T10:12:34;2.07;;;0.90;;
7432;SDS011;32233;49.500;7.764;2023-03-16T10:15:14;1.40;;;0.90;;
7432;SDS011;32233;49.500;7.764;2023-03-16T10:17:49;1.10;;;0.90;;
7432;SDS011;32233;49.500;7.764;2023-03-16T10:20:38;1.80;;;0.70;;
7432;SDS011;32233;49.500;7.764;2023-03-16T10:23:12;0.80;;;0.60;;
7432;SDS011;32233;49.500;7.764;2023-03-16T10:25:46;1.93;;;0.80;;
7432;SDS011;32233;49.500;7.764;2023-03-16T10:28:26;1.63;;;0.90;;
7432;SDS011;32233;49.500;7.764;2023-03-16T10:30:58;2.00;;;0.70;;
7432;SDS011;32233;49.500;7.764;2023-03-16T10:33:32;0.70;;;0.70;;
7432;SDS011;32233;49.500;7.764;2023-03-16T10:36:24;2.00;;;0.77;;
7432;SDS011;32233;49.500;7.764;2023-03-16T10:39:04;1.17;;;0.50;;
7432;SDS011;32233;49.500;7.764;2023-03-16T10:41:34;0.90;;;0.70;;
7432;SDS011;32233;49.500;7.764;2023-03-16T10:44:09;1.00;;;0.70;;
7432;SDS011;32233;49.500;7.764;2023-03-16T10:46:38;1.23;;;0.60;;
7432;SDS011;32233;49.500;7.764;2023-03-16T10:49:21;0.77;;;0.50;;
7432;SDS011;32233;49.500;7.764;2023-03-16T10:59:53;0.57;;;0.57;;
7432;SDS011;32233;49.500;7.764;2023-03-16T11:02:23;1.03;;;0.60;;
7432;SDS011;32233;49.500;7.764;2023-03-16T11:04:56;1.00;;;0.70;;
7432;SDS011;32233;49.500;7.764;2023-03-16T11:07:23;2.30;;;0.80;;
7432;SDS011;32233;49.500;7.764;2023-03-16T11:09:51;1.80;;;0.60;;
7432;SDS011;32233;49.500;7.764;2023-03-16T11:12:39;1.37;;;1.00;;
7432;SDS011;32233;49.500;7.764;2023-03-16T11:15:12;1.63;;;0.70;;
7432;SDS011;32233;49.500;7.764;2023-03-16T11:17:50;3.23;;;0.73;;
7432;SDS011;32233;49.500;7.764;2023-03-16T11:20:25;0.50;;;0.50;;
7432;SDS011;32233;49.500;7.764;2023-03-16T11:22:53;0.60;;;0.60;;
7432;SDS011;32233;49.500;7.764;2023-03-16T11:25:40;1.80;;;0.60;;
7432;SDS011;32233;49.500;7.764;2023-03-16T11:28:14;0.60;;;0.57;;
7432;SDS011;32233;49.500;7.764;2023-03-16T11:33:35;2.37;;;0.57;;
7432;SDS011;32233;49.500;7.764;2023-03-16T11:38:48;1.30;;;0.67;;
7432;SDS011;32233;49.500;7.764;2023-03-16T11:43:59;0.60;;;0.40;;
7432;SDS011;32233;49.500;7.764;2023-03-16T11:49:47;1.07;;;0.60;;
7432;SDS011;32233;49.500;7.764;2023-03-16T11:55:44;0.43;;;0.43;;
7432;SDS011;32233;49.500;7.764;2023-03-16T12:03:55;1.60;;;0.50;;
7432;SDS011;32233;49.500;7.764;2023-03-16T12:06:29;2.23;;;0.50;;
7432;SDS011;32233;49.500;7.764;2023-03-16T12:09:10;1.07;;;0.50;;
7432;SDS011;32233;49.500;7.764;2023-03-16T12:12:01;0.50;;;0.50;;
7432;SDS011;32233;49.500;7.764;2023-03-16T12:14:48;0.40;;;0.40;;
7432;SDS011;32233;49.500;7.764;2023-03-16T12:17:26;1.20;;;0.70;;
7432;SDS011;32233;49.500;7.764;2023-03-16T12:20:02;1.53;;;0.80;;
7432;SDS011;32233;49.500;7.764;2023-03-16T12:22:46;0.67;;;0.50;;
7432;SDS011;32233;49.500;7.764;2023-03-16T12:25:18;0.60;;;0.60;;
7432;SDS011;32233;49.500;7.764;2023-03-16T12:27:51;0.70;;;0.50;;
7432;SDS011;32233;49.500;7.764;2023-03-16T12:35:38;0.83;;;0.50;;
7432;SDS011;32233;49.500;7.764;2023-03-16T12:46:23;0.70;;;0.70;;
7432;SDS011;32233;49.500;7.764;2023-03-16T12:49:01;0.93;;;0.50;;
7432;SDS011;32233;49.500;7.764;2023-03-16T12:51:42;0.63;;;0.50;;
7432;SDS011;32233;49.500;7.764;2023-03-16T12:54:19;0.73;;;0.70;;
7432;SDS011;32233;49.500;7.764;2023-03-16T12:56:48;0.90;;;0.60;;
7432;SDS011;32233;49.500;7.764;2023-03-16T12:59:17;0.63;;;0.50;;
7432;SDS011;32233;49.500;7.764;2023-03-16T13:01:49;0.63;;;0.50;;
7432;SDS011;32233;49.500;7.764;2023-03-16T13:04:19;0.70;;;0.70;;
7432;SDS011;32233;49.500;7.764;2023-03-16T13:07:07;0.60;;;0.60;;
7432;SDS011;32233;49.500;7.764;2023-03-16T13:12:36;1.00;;;0.70;;
7432;SDS011;32233;49.500;7.764;2023-03-16T13:17:49;3.17;;;2.30;;
7432;SDS011;32233;49.500;7.764;2023-03-16T13:20:30;1.07;;;0.60;;
7432;SDS011;32233;49.500;7.764;2023-03-16T13:23:16;1.00;;;0.60;;
7432;SDS011;32233;49.500;7.764;2023-03-16T13:28:37;1.40;;;0.50;;
7432;SDS011;32233;49.500;7.764;2023-03-16T13:31:05;0.80;;;0.60;;
7432;SDS011;32233;49.500;7.764;2023-03-16T13:33:47;1.47;;;0.60;;
7432;SDS011;32233;49.500;7.764;2023-03-16T13:36:14;0.67;;;0.67;;
7432;SDS011;32233;49.500;7.764;2023-03-16T13:38:42;0.57;;;0.50;;
7432;SDS011;32233;49.500;7.764;2023-03-16T13:41:10;1.47;;;0.60;;
7432;SDS011;32233;49.500;7.764;2023-03-16T13:43:42;0.87;;;0.60;;
7432;SDS011;32233;49.500;7.764;2023-03-16T13:46:13;1.47;;;0.60;;
7432;SDS011;32233;49.500;7.764;2023-03-16T13:48:41;0.60;;;0.50;;
7432;SDS011;32233;49.500;7.764;2023-03-16T13:51:17;1.80;;;0.83;;
7432;SDS011;32233;49.500;7.764;2023-03-16T13:53:48;0.70;;;0.63;;
7432;SDS011;32233;49.500;7.764;2023-03-16T13:56:16;0.70;;;0.70;;
7432;SDS011;32233;49.500;7.764;2023-03-16T13:58:49;0.90;;;0.70;;
7432;SDS011;32233;49.500;7.764;2023-03-16T14:03:50;1.10;;;0.70;;
7432;SDS011;32233;49.500;7.764;2023-03-16T14:06:22;0.70;;;0.70;;
7432;SDS011;32233;49.500;7.764;2023-03-16T14:09:01;1.33;;;0.80;;
7432;SDS011;32233;49.500;7.764;2023-03-16T14:11:30;1.07;;;0.70;;
7432;SDS011;32233;49.500;7.764;2023-03-16T14:13:59;0.70;;;0.70;;
7432;SDS011;32233;49.500;7.764;2023-03-16T14:16:27;3.30;;;0.80;;
7432;SDS011;32233;49.500;7.764;2023-03-16T14:18:57;1.10;;;0.63;;
7432;SDS011;32233;49.500;7.764;2023-03-16T14:21:28;1.40;;;0.90;;
7432;SDS011;32233;49.500;7.764;2023-03-16T14:23:58;1.13;;;0.50;;
7432;SDS011;32233;49.500;7.764;2023-03-16T14:26:37;0.63;;;0.50;;
7432;SDS011;32233;49.500;7.764;2023-03-16T14:31:53;0.60;;;0.60;;
7432;SDS011;32233;49.500;7.764;2023-03-16T14:34:30;0.70;;;0.70;;
7432;SDS011;32233;49.500;7.764;2023-03-16T14:37:08;2.27;;;0.80;;
7432;SDS011;32233;49.500;7.764;2023-03-16T14:39:40;0.83;;;0.80;;
7432;SDS011;32233;49.500;7.764;2023-03-16T14:42:17;1.10;;;0.63;;
7432;SDS011;32233;49.500;7.764;2023-03-16T14:44:49;0.60;;;0.60;;
7432;SDS011;32233;49.500;7.764;2023-03-16T14:47:21;0.70;;;0.70;;
7432;SDS011;32233;49.500;7.764;2023-03-16T14:49:50;0.90;;;0.80;;
7432;SDS011;32233;49.500;7.764;2023-03-16T14:52:21;2.40;;;1.90;;
7432;SDS011;32233;49.500;7.764;2023-03-16T14:54:52;1.20;;;1.10;;
7432;SDS011;32233;49.500;7.764;2023-03-16T14:57:20;2.03;;;1.63;;
7432;SDS011;32233;49.500;7.764;2023-03-16T14:59:47;3.40;;;2.13;;
7432;SDS011;32233;49.500;7.764;2023-03-16T15:02:16;3.60;;;2.03;;
7432;SDS011;32233;49.500;7.764;2023-03-16T15:04:45;3.30;;;1.40;;
7432;SDS011;32233;49.500;7.764;2023-03-16T15:07:19;2.67;;;1.20;;
7432;SDS011;32233;49.500;7.764;2023-03-16T15:09:50;1.10;;;1.00;;
7432;SDS011;32233;49.500;7.764;2023-03-16T15:12:19;2.63;;;1.53;;
7432;SDS011;32233;49.500;7.764;2023-03-16T15:14:46;2.87;;;1.80;;
7432;SDS011;32233;49.500;7.764;2023-03-16T15:17:32;2.70;;;1.70;;
7432;SDS011;32233;49.500;7.764;2023-03-16T15:19:58;2.10;;;1.50;;
7432;SDS011;32233;49.500;7.764;2023-03-16T15:22:29;1.13;;;1.00;;
7432;SDS011;32233;49.500;7.764;2023-03-16T15:24:57;1.33;;;1.23;;
7432;SDS011;32233;49.500;7.764;2023-03-16T15:27:27;2.17;;;1.60;;
7432;SDS011;32233;49.500;7.764;2023-03-16T15:29:58;1.87;;;1.63;;
7432;SDS011;32233;49.500;7.764;2023-03-16T15:32:24;2.07;;;1.10;;
7432;SDS011;32233;49.500;7.764;2023-03-16T15:34:51;1.63;;;1.00;;
7432;SDS011;32233;49.500;7.764;2023-03-16T15:37:18;3.27;;;1.27;;
7432;SDS011;32233;49.500;7.764;2023-03-16T15:39:45;1.30;;;1.13;;
7432;SDS011;32233;49.500;7.764;2023-03-16T15:42:16;1.30;;;1.20;;
7432;SDS011;32233;49.500;7.764;2023-03-16T15:44:44;1.77;;;1.20;;
7432;SDS011;32233;49.500;7.764;2023-03-16T15:47:11;1.20;;;1.10;;
7432;SDS011;32233;49.500;7.764;2023-03-16T15:49:38;1.63;;;1.27;;
7432;SDS011;32233;49.500;7.764;2023-03-16T15:52:26;0.93;;;0.93;;
7432;SDS011;32233;49.500;7.764;2023-03-16T15:54:57;1.40;;;1.10;;
7432;SDS011;32233;49.500;7.764;2023-03-16T15:57:29;1.63;;;1.00;;
7432;SDS011;32233;49.500;7.764;2023-03-16T15:59:57;1.80;;;1.20;;
7432;SDS011;32233;49.500;7.764;2023-03-16T16:02:26;1.50;;;1.20;;
7432;SDS011;32233;49.500;7.764;2023-03-16T16:04:55;1.20;;;1.10;;
7432;SDS011;32233;49.500;7.764;2023-03-16T16:07:22;1.03;;;1.03;;
7432;SDS011;32233;49.500;7.764;2023-03-16T16:09:49;1.53;;;1.10;;
7432;SDS011;32233;49.500;7.764;2023-03-16T16:12:16;2.23;;;1.30;;
7432;SDS011;32233;49.500;7.764;2023-03-16T16:14:44;1.50;;;1.13;;
7432;SDS011;32233;49.500;7.764;2023-03-16T16:17:11;2.07;;;1.20;;
7432;SDS011;32233;49.500;7.764;2023-03-16T16:20:19;2.47;;;1.33;;
7432;SDS011;32233;49.500;7.764;2023-03-16T16:22:48;3.17;;;2.17;;
7432;SDS011;32233;49.500;7.764;2023-03-16T16:25:17;5.63;;;2.50;;
7432;SDS011;32233;49.500;7.764;2023-03-16T16:27:46;5.23;;;2.73;;
7432;SDS011;32233;49.500;7.764;2023-03-16T16:30:17;2.80;;;2.00;;
7432;SDS011;32233;49.500;7.764;2023-03-16T16:32:47;2.50;;;1.93;;
7432;SDS011;32233;49.500;7.764;2023-03-16T16:35:15;2.83;;;1.90;;
7432;SDS011;32233;49.500;7.764;2023-03-16T16:37:49;3.83;;;2.13;;
7432;SDS011;32233;49.500;7.764;2023-03-16T16:40:20;4.87;;;2.73;;